MST,Max TemperatureF,Mean TemperatureF,Min TemperatureF,Max Dew PointF,MeanDew PointF,Min DewpointF,Max Humidity, Mean Humidity, Min Humidity, Max Sea Level PressureIn, Mean Sea Level PressureIn, Min Sea Level PressureIn, Max VisibilityMiles, Mean VisibilityMiles, Min VisibilityMiles, Max Wind SpeedMPH, Mean Wind SpeedMPH, Max Gust SpeedMPH,PrecipitationIn, CloudCover, Events, WindDirDegrees
2013-11-1,52,42,32,32,30,25,96,66,35,30.32,30.23,30.12,10,10,10,12,4,15,0.00,2,,135
2013-11-2,60,43,26,33,27,22,85,57,28,30.33,30.16,29.92,10,10,10,13,5,14,0.00,0,,151
2013-11-3,62,49,35,32,25,19,70,46,22,29.87,29.75,29.61,10,9,2,35,12,43,0.00,2,,210
2013-11-4,44,35,26,26,22,17,81,61,40,30.00,29.93,29.84,10,10,10,12,3,14,0.00,1,,54
2013-11-5,39,32,24,30,24,12,100,67,33,30.40,30.12,29.99,10,6,2,17,7,23,0.03,6,Snow,325
2013-11-6,47,33,19,21,16,12,75,52,28,30.56,30.48,30.39,10,10,10,16,7,17,0.00,1,,130
2013-11-7,54,38,22,27,23,19,92,61,29,30.60,30.40,30.17,10,10,9,9,5,11,0.00,0,,149
2013-11-8,61,44,27,27,25,19,85,53,20,30.19,30.10,29.98,10,10,9,12,6,14,0.00,0,,128
2013-11-9,60,44,28,27,24,22,75,49,22,30.26,30.19,30.11,10,10,10,13,7,13,0.00,0,,154
2013-11-10,62,45,27,25,23,20,75,47,19,30.37,30.28,30.18,10,10,10,13,7,13,0.00,0,,166
2013-11-11,62,45,27,26,23,21,81,51,21,30.45,30.36,30.28,10,10,10,13,6,13,0.00,0,,143
2013-11-12,61,44,27,26,23,21,75,49,22,30.59,30.47,30.38,10,10,10,13,7,14,0.00,0,,156
2013-11-13,58,43,28,26,23,20,69,47,24,30.43,30.28,30.11,10,10,10,13,6,13,0.00,0,,162
2013-11-14,55,43,31,27,25,20,75,52,28,30.19,30.02,29.82,10,10,10,14,6,16,0.00,2,,153
2013-11-15,59,43,26,36,26,17,92,57,21,29.83,29.69,29.57,10,9,2,30,9,38,0.05,4,Rain-Thunderstorm,182
2013-11-16,48,40,31,35,33,27,100,73,45,29.69,29.60,29.53,10,10,10,24,8,31,T,6,Rain,175
2013-11-17,54,43,31,33,30,26,89,64,38,30.18,29.99,29.71,10,10,10,12,6,16,0.00,3,,92
2013-11-18,55,40,24,26,23,21,88,58,28,30.34,30.20,30.11,10,10,10,13,6,15,0.00,0,,134
2013-11-19,48,38,27,31,27,22,78,62,45,30.09,29.98,29.88,10,10,10,14,4,17,0.00,4,,143
2013-11-20,50,40,29,39,33,28,92,69,46,29.95,29.88,29.77,10,10,7,12,4,16,0.11,5,Rain,171
2013-11-21,48,40,31,39,37,24,100,83,66,30.22,30.00,29.84,10,7,1,17,4,24,0.08,8,Rain-Snow,347
2013-11-22,33,31,28,31,28,23,92,85,78,30.35,30.29,30.22,10,3,0,10,3,12,0.12,8,Fog-Snow,11
2013-11-23,39,35,30,34,32,30,100,93,85,30.33,30.26,30.17,10,6,0,7,2,9,T,7,Fog-Snow,330
2013-11-24,36,35,33,34,33,32,100,96,92,30.17,30.11,30.06,10,4,0,10,3,14,0.30,8,Fog-Rain-Snow,324
2013-11-25,39,34,28,32,30,24,96,83,70,30.42,30.23,30.10,10,10,10,16,5,20,0.00,7,,297
2013-11-26,44,34,23,29,25,20,92,74,55,30.52,30.44,30.39,10,10,10,10,5,12,0.00,0,,143
2013-11-27,44,34,23,29,25,20,88,71,53,30.43,30.31,30.20,10,10,10,9,5,12,0.00,0,,126
2013-11-28,44,34,24,30,26,21,92,73,53,30.30,30.26,30.17,10,9,0,9,4,10,0.00,0,Fog,359
2013-11-29,30,28,26,28,26,23,100,92,84,30.46,30.40,30.30,10,4,0,8,2,9,0.00,8,Fog,141
2013-11-30,39,33,27,30,27,25,92,81,70,30.47,30.41,30.32,10,10,8,10,2,12,0.00,6,,113